Time;durP1;ratioP1;P1;durP2;ratioP2;P2;SDS_P1;SDS_P2;PMS_P1;PMS_P2;Temp;Humidity;BMP_temperature;BMP_pressure;BME280_temperature;BME280_humidity;BME280_pressure;Samples;Min_cycle;Max_cycle;Signal;HPM_P1;HPM_P2
2023/07/02 00:00:06;;;;;;;;;;;;;;;24.85;52.48;99675.69;2331681;75;50649;-76
2023/07/02 00:03:09;;;;;;;;;;;;;;;24.88;52.36;99679.79;2305521;75;51538;-76
2023/07/02 00:06:11;;;;;;;;;;;;;;;24.89;52.42;99682.27;2363668;75;50359;-75
2023/07/02 00:09:13;;;;;;;;;;;;;;;24.87;52.47;99678.97;2364002;75;50304;-75
2023/07/02 00:12:14;;;;;;;;;;;;;;;24.88;52.55;99682.49;2364042;75;51332;-75
2023/07/02 00:15:16;;;;;;;;;;;;;;;24.87;52.54;99684.39;2331426;75;52309;-76
2023/07/02 00:18:18;;;;;;;;;;;;;;;24.88;52.47;99681.14;2331341;75;51566;-75
2023/07/02 00:21:20;;;;;;;;;;;;;;;24.85;52.71;99680.30;2338970;75;51502;-76
2023/07/02 00:24:22;;;;;;;;;;;;;;;24.88;52.69;99688.72;2341300;75;50724;-77
2023/07/02 00:27:23;;;;;;;;;;;;;;;24.91;52.72;99684.70;2294304;76;51396;-76
2023/07/02 00:30:25;;;;;;;;;;;;;;;24.92;52.76;99687.17;2326513;76;50554;-76
2023/07/02 00:33:26;;;;;;;;;;;;;;;24.87;52.76;99689.80;2293467;76;51453;-75
2023/07/02 00:36:28;;;;;;;;;;;;;;;24.86;52.78;99693.55;2293330;76;50618;-76
2023/07/02 00:39:30;;;;;;;;;;;;;;;24.87;52.72;99700.62;2295081;76;50969;-76
2023/07/02 00:42:32;;;;;;;;;;;;;;;24.87;52.86;99694.40;2293238;76;50618;-77
2023/07/02 00:45:33;;;;;;;;;;;;;;;24.90;52.71;99703.37;2326293;76;50353;-76
2023/07/02 00:48:35;;;;;;;;;;;;;;;24.92;52.68;99701.20;2297049;75;50758;-76
2023/07/02 00:51:37;;;;;;;;;;;;;;;24.92;52.70;99698.50;2344645;75;51958;-76
2023/07/02 00:54:40;;;;;;;;;;;;;;;24.84;52.92;99703.83;2350430;75;50700;-76
2023/07/02 00:57:46;;;;;;;;;;;;;;;24.86;52.77;99708.44;2352495;75;50856;-76
2023/07/02 01:00:45;;;;;;;;;;;;;;;24.84;52.80;99703.83;2351200;75;22369;-77
2023/07/02 01:03:54;;;;;;;;;;;;;;;24.86;52.69;99703.02;2320080;75;50623;-76
2023/07/02 01:07:00;;;;;;;;;;;;;;;24.85;52.84;99691.92;2352035;75;50043;-76
2023/07/02 01:09:59;;;;;;;;;;;;;;;24.83;52.95;99703.53;2352258;75;22473;-75
2023/07/02 01:13:02;;;;;;;;;;;;;;;24.82;52.96;99694.33;2344768;75;51659;-77
2023/07/02 01:16:04;;;;;;;;;;;;;;;24.82;52.95;99705.95;2303639;76;51536;-77
2023/07/02 01:19:05;;;;;;;;;;;;;;;24.82;52.96;99704.61;2335447;75;49814;-77
2023/07/02 01:22:07;;;;;;;;;;;;;;;24.81;52.93;99705.66;2297531;77;51448;-75
2023/07/02 01:25:09;;;;;;;;;;;;;;;24.82;52.91;99711.91;2267196;78;50695;-76
2023/07/02 01:28:12;;;;;;;;;;;;;;;24.82;52.90;99707.31;2284831;77;51500;-76
2023/07/02 01:31:14;;;;;;;;;;;;;;;24.84;52.88;99707.05;2279479;77;51512;-76
2023/07/02 01:34:15;;;;;;;;;;;;;;;24.82;52.96;99715.42;2282595;78;51449;-77
2023/07/02 01:37:18;;;;;;;;;;;;;;;24.83;52.85;99721.11;2251987;78;51522;-76
2023/07/02 01:40:19;;;;;;;;;;;;;;;24.82;52.91;99724.90;2252112;78;51240;-77
2023/07/02 01:43:21;;;;;;;;;;;;;;;24.82;52.88;99714.08;2252090;78;50375;-77
2023/07/02 01:46:22;;;;;;;;;;;;;;;24.83;52.84;99719.77;2282453;78;50659;-77
2023/07/02 01:49:24;;;;;;;;;;;;;;;24.84;52.83;99717.87;2247617;78;50662;-77
2023/07/02 01:52:26;;;;;;;;;;;;;;;24.84;52.90;99724.13;2241590;77;50863;-76
2023/07/02 01:55:27;;;;;;;;;;;;;;;24.82;52.90;99711.37;2293265;77;50142;-75
2023/07/02 01:58:29;;;;;;;;;;;;;;;24.83;52.86;99725.17;2293043;77;50220;-75
2023/07/02 02:01:32;;;;;;;;;;;;;;;24.84;52.78;99741.72;2293021;77;50394;-76
2023/07/02 02:04:34;;;;;;;;;;;;;;;24.85;52.72;99733.87;2262969;77;24843;-77
2023/07/02 02:07:37;;;;;;;;;;;;;;;24.85;52.69;99733.05;2262259;77;51508;-75
2023/07/02 02:10:39;;;;;;;;;;;;;;;24.84;52.64;99725.48;2292101;77;51376;-75
2023/07/02 02:13:40;;;;;;;;;;;;;;;24.83;52.61;99727.88;2293150;77;50692;-75
2023/07/02 02:16:45;;;;;;;;;;;;;;;24.83;52.61;99722.47;2237883;77;52487;-75
2023/07/02 02:19:46;;;;;;;;;;;;;;;24.85;52.54;99727.10;2257827;77;23234;-75
2023/07/02 02:22:48;;;;;;;;;;;;;;;24.82;52.59;99734.37;2322006;75;49565;-75
2023/07/02 02:25:49;;;;;;;;;;;;;;;24.82;52.55;99726.25;2334074;75;50222;-76
2023/07/02 02:28:51;;;;;;;;;;;;;;;24.84;52.62;99732.75;2361669;75;50315;-76
2023/07/02 02:31:53;;;;;;;;;;;;;;;24.83;52.63;99731.94;2334017;75;51431;-75
2023/07/02 02:34:54;;;;;;;;;;;;;;;24.84;52.60;99740.36;2333928;75;50669;-75
2023/07/02 02:37:56;;;;;;;;;;;;;;;24.85;52.60;99741.98;2333715;75;51493;-75
2023/07/02 02:40:57;;;;;;;;;;;;;;;24.85;52.58;99743.34;2333993;75;52322;-75
2023/07/02 02:43:59;;;;;;;;;;;;;;;24.85;52.53;99744.69;2333895;75;51495;-75
2023/07/02 02:47:00;;;;;;;;;;;;;;;24.83;52.51;99744.66;2361612;75;50227;-75
2023/07/02 02:50:02;;;;;;;;;;;;;;;24.84;52.52;99740.36;2355712;75;50284;-75
2023/07/02 02:53:04;;;;;;;;;;;;;;;24.85;52.47;99733.05;2307689;75;51534;-75
2023/07/02 02:56:05;;;;;;;;;;;;;;;24.85;52.49;99737.92;2333280;76;50389;-75
2023/07/02 02:59:07;;;;;;;;;;;;;;;24.85;52.47;99747.40;2301638;76;50312;-75
2023/07/02 03:02:08;;;;;;;;;;;;;;;24.84;52.50;99740.36;2301526;76;52406;-76
2023/07/02 03:05:10;;;;;;;;;;;;;;;24.83;52.57;99750.88;2275930;76;51139;-75
2023/07/02 03:08:12;;;;;;;;;;;;;;;24.81;52.51;99744.89;2333125;76;51552;-76
2023/07/02 03:11:14;;;;;;;;;;;;;;;24.81;52.54;99740.83;2333355;75;51491;-76
2023/07/02 03:14:15;;;;;;;;;;;;;;;24.83;52.50;99758.19;2333435;76;51424;-76
2023/07/02 03:17:17;;;;;;;;;;;;;;;24.83;52.54;99750.06;2275975;76;52331;-76
2023/07/02 03:20:18;;;;;;;;;;;;;;;24.81;52.60;99758.41;2316403;75;51752;-76
2023/07/02 03:23:20;;;;;;;;;;;;;;;24.82;52.52;99744.38;2281696;76;50358;-76
2023/07/02 03:26:22;;;;;;;;;;;;;;;24.82;52.46;99752.49;2303659;77;50607;-74
2023/07/02 03:29:24;;;;;;;;;;;;;;;24.82;52.43;99755.20;2271375;77;51752;-76
2023/07/02 03:32:26;;;;;;;;;;;;;;;24.82;52.41;99756.55;2270777;77;50171;-76
2023/07/02 03:35:27;;;;;;;;;;;;;;;24.81;52.39;99755.70;2270873;77;50027;-76
2023/07/02 03:38:29;;;;;;;;;;;;;;;24.81;52.43;99756.25;2303968;77;50631;-77
2023/07/02 03:41:31;;;;;;;;;;;;;;;24.80;52.44;99751.38;2270622;77;51487;-75
2023/07/02 03:44:32;;;;;;;;;;;;;;;24.80;52.44;99760.84;2270525;77;52258;-76
2023/07/02 03:47:34;;;;;;;;;;;;;;;24.80;52.39;99754.08;2270766;77;51641;-75
2023/07/02 03:50:36;;;;;;;;;;;;;;;24.77;52.40;99760.80;2309550;75;51552;-77
2023/07/02 03:53:37;;;;;;;;;;;;;;;24.76;52.34;99756.47;2329028;74;51426;-76
2023/07/02 03:56:39;;;;;;;;;;;;;;;24.79;52.38;99767.33;2363832;75;51505;-75
2023/07/02 03:59:40;;;;;;;;;;;;;;;24.78;52.48;99757.56;2332108;75;51467;-75
2023/07/02 04:02:42;;;;;;;;;;;;;;;24.76;52.45;99762.39;2364428;75;51468;-76
2023/07/02 04:05:44;;;;;;;;;;;;;;;24.80;52.41;99768.15;2331555;75;52403;-75
2023/07/02 04:08:45;;;;;;;;;;;;;;;24.78;52.44;99771.09;2331397;75;52234;-76
2023/07/02 04:11:47;;;;;;;;;;;;;;;24.78;52.47;99773.80;2358773;75;51521;-76
2023/07/02 04:14:50;;;;;;;;;;;;;;;24.78;52.44;99788.67;2354939;75;50650;-75
2023/07/02 04:17:52;;;;;;;;;;;;;;;24.78;52.57;99784.62;2304475;75;51004;-76
2023/07/02 04:20:55;;;;;;;;;;;;;;;24.77;52.58;99791.92;2308134;75;50647;-74
2023/07/02 04:23:57;;;;;;;;;;;;;;;24.76;52.51;99801.11;2348425;75;50275;-76
2023/07/02 04:26:59;;;;;;;;;;;;;;;24.75;52.56;99785.92;2357099;75;50220;-75
2023/07/02 04:30:01;;;;;;;;;;;;;;;24.75;52.50;99787.81;2307922;75;52433;-75
2023/07/02 04:33:05;;;;;;;;;;;;;;;24.78;52.52;99788.67;2332690;75;50284;-76
2023/07/02 04:36:07;;;;;;;;;;;;;;;24.77;52.53;99785.16;2366350;75;51517;-76
2023/07/02 04:39:10;;;;;;;;;;;;;;;24.77;52.57;99793.81;2332609;75;50319;-76
2023/07/02 04:42:14;;;;;;;;;;;;;;;24.78;52.51;99796.79;2306619;75;52645;-76
2023/07/02 04:45:15;;;;;;;;;;;;;;;24.79;52.57;99801.16;2366615;75;22372;-76
2023/07/02 04:48:17;;;;;;;;;;;;;;;24.81;52.68;99809.01;2366120;75;51568;-76
2023/07/02 04:51:20;;;;;;;;;;;;;;;24.75;52.88;99805.41;2302175;75;51297;-76
2023/07/02 04:54:22;;;;;;;;;;;;;;;24.73;52.98;99812.40;2334161;75;51219;-76
2023/07/02 04:57:23;;;;;;;;;;;;;;;24.73;53.08;99807.52;2372228;75;51433;-76
2023/07/02 05:00:25;;;;;;;;;;;;;;;24.77;53.13;99820.86;2342130;75;50658;-75
2023/07/02 05:03:27;;;;;;;;;;;;;;;24.81;53.02;99817.13;2372310;75;51562;-75
2023/07/02 05:06:28;;;;;;;;;;;;;;;24.86;52.93;99818.03;2341585;75;52683;-75
2023/07/02 05:09:30;;;;;;;;;;;;;;;24.82;53.16;99826.36;2342097;75;50347;-74
2023/07/02 05:12:31;;;;;;;;;;;;;;;24.83;53.15;99821.77;2341856;75;50621;-75
2023/07/02 05:15:33;;;;;;;;;;;;;;;24.86;53.17;99832.91;2372498;75;50404;-75
2023/07/02 05:18:35;;;;;;;;;;;;;;;24.93;53.14;99823.30;2312494;75;52149;-75
2023/07/02 05:21:36;;;;;;;;;;;;;;;24.96;52.62;99830.38;2361762;75;51565;-75
2023/07/02 05:24:40;;;;;;;;;;;;;;;24.97;52.08;99824.42;2304318;76;50288;-75
2023/07/02 05:27:41;;;;;;;;;;;;;;;24.99;52.04;99827.71;2333963;76;23219;-74
2023/07/02 05:30:43;;;;;;;;;;;;;;;24.98;51.91;99832.31;2279248;76;51125;-73
2023/07/02 05:33:44;;;;;;;;;;;;;;;24.98;51.81;99835.02;2304453;76;51575;-74
2023/07/02 05:36:46;;;;;;;;;;;;;;;24.97;50.74;99837.95;2304128;76;51532;-76
2023/07/02 05:39:48;;;;;;;;;;;;;;;25.06;49.25;99832.98;2333967;76;51638;-75
2023/07/02 05:42:50;;;;;;;;;;;;;;;25.02;49.26;99835.88;2304444;76;51488;-75
2023/07/02 05:45:52;;;;;;;;;;;;;;;25.10;48.85;99838.16;2333888;76;51468;-75
2023/07/02 05:48:59;;;;;;;;;;;;;;;25.06;48.76;99838.39;2306276;73;51466;-75
2023/07/02 05:51:57;;;;;;;;;;;;;;;25.03;49.52;99844.30;2359534;75;22335;-75
2023/07/02 05:54:58;;;;;;;;;;;;;;;24.95;49.81;99850.39;2341731;75;51303;-74
2023/07/02 05:58:02;;;;;;;;;;;;;;;24.91;49.93;99847.87;2341805;75;51487;-75
2023/07/02 06:01:05;;;;;;;;;;;;;;;24.89;50.05;99852.74;2372499;75;22305;-74
2023/07/02 06:04:06;;;;;;;;;;;;;;;25.02;49.89;99850.76;2342153;75;50730;-74
2023/07/02 06:07:08;;;;;;;;;;;;;;;25.08;50.26;99855.21;2333117;73;51565;-75
2023/07/02 06:10:09;;;;;;;;;;;;;;;25.18;50.37;99855.41;2351980;75;51511;-75
2023/07/02 06:13:11;;;;;;;;;;;;;;;25.25;50.42;99867.41;2327433;73;51266;-75
2023/07/02 06:16:13;;;;;;;;;;;;;;;25.37;50.32;99857.31;2345207;73;50545;-75
2023/07/02 06:19:14;;;;;;;;;;;;;;;25.46;50.28;99865.83;2330030;75;51005;-75
2023/07/02 06:22:16;;;;;;;;;;;;;;;25.42;50.42;99844.67;2368630;73;51368;-75
2023/07/02 06:25:17;;;;;;;;;;;;;;;25.43;50.36;99841.42;2334386;75;53226;-74
2023/07/02 06:28:19;;;;;;;;;;;;;;;25.36;50.34;99842.96;2343877;75;50621;-75
2023/07/02 06:31:21;;;;;;;;;;;;;;;25.23;50.57;99851.43;2344264;75;50629;-75
2023/07/02 06:34:22;;;;;;;;;;;;;;;25.20;50.56;99851.89;2358207;73;50257;-75
2023/07/02 06:37:24;;;;;;;;;;;;;;;25.16;50.58;99854.28;2358976;73;50633;-74
2023/07/02 06:40:25;;;;;;;;;;;;;;;25.12;50.67;99844.16;2371263;73;51340;-74
2023/07/02 06:43:27;;;;;;;;;;;;;;;25.10;50.64;99835.46;2340597;73;51004;-74
2023/07/02 06:46:29;;;;;;;;;;;;;;;25.16;50.53;99831.81;2374529;75;51426;-74
2023/07/02 06:49:30;;;;;;;;;;;;;;;25.24;50.61;99849.00;2365506;75;50662;-75
2023/07/02 06:52:32;;;;;;;;;;;;;;;25.32;50.70;99855.34;2330002;75;51316;-74
2023/07/02 06:55:34;;;;;;;;;;;;;;;25.37;50.63;99856.78;2342012;75;51541;-76
2023/07/02 06:58:35;;;;;;;;;;;;;;;25.38;50.84;99857.59;2311610;75;50045;-75
2023/07/02 07:01:37;;;;;;;;;;;;;;;25.47;50.79;99847.18;2308374;76;50109;-74
2023/07/02 07:04:38;;;;;;;;;;;;;;;25.42;50.71;99862.81;2308166;76;50338;-74
2023/07/02 07:07:40;;;;;;;;;;;;;;;25.44;50.28;99853.09;2307966;76;51672;-74
2023/07/02 07:10:42;;;;;;;;;;;;;;;25.37;50.06;99852.72;2308270;76;50614;-74
2023/07/02 07:13:44;;;;;;;;;;;;;;;25.36;49.83;99856.50;2357031;73;51455;-74
2023/07/02 07:16:45;;;;;;;;;;;;;;;25.30;49.67;99842.58;2355655;75;50450;-74
2023/07/02 07:19:47;;;;;;;;;;;;;;;25.28;49.47;99852.02;2310002;75;51257;-74
2023/07/02 07:22:49;;;;;;;;;;;;;;;25.23;49.37;99850.08;2373471;74;50404;-75
2023/07/02 07:25:50;;;;;;;;;;;;;;;25.21;49.18;99852.20;2345746;75;51463;-75
2023/07/02 07:28:54;;;;;;;;;;;;;;;25.19;49.21;99847.56;2323647;76;51607;-75
2023/07/02 07:31:55;;;;;;;;;;;;;;;25.25;49.36;99854.69;2341505;75;22291;-75
2023/07/02 07:34:57;;;;;;;;;;;;;;;25.34;49.38;99864.05;2341154;76;50276;-76
2023/07/02 07:37:58;;;;;;;;;;;;;;;25.45;49.37;99855.54;2340857;76;50323;-76
2023/07/02 07:41:00;;;;;;;;;;;;;;;25.50;49.21;99843.97;2341152;76;50612;-75
2023/07/02 07:44:02;;;;;;;;;;;;;;;25.51;49.49;99860.49;2323614;76;51246;-75
2023/07/02 07:47:03;;;;;;;;;;;;;;;25.44;49.62;99855.80;2323683;76;50399;-76
2023/07/02 07:50:12;;;;;;;;;;;;;;;25.36;49.96;99875.46;2318432;75;50197;-76
2023/07/02 07:53:13;;;;;;;;;;;;;;;25.33;49.62;99865.13;2331098;75;50444;-75
2023/07/02 07:56:15;;;;;;;;;;;;;;;25.27;49.55;99874.22;2368631;75;50562;-75
2023/07/02 07:59:16;;;;;;;;;;;;;;;25.26;48.51;99882.61;2328878;75;50318;-76
2023/07/02 08:02:18;;;;;;;;;;;;;;;25.18;47.86;99889.25;2350178;75;49921;-75
2023/07/02 08:05:19;;;;;;;;;;;;;;;25.15;47.23;99882.91;2325329;75;50580;-75
2023/07/02 08:08:21;;;;;;;;;;;;;;;25.10;47.06;99892.30;2319192;75;50059;-75
2023/07/02 08:11:23;;;;;;;;;;;;;;;25.05;46.47;99893.06;2317189;75;51320;-77
2023/07/02 08:14:24;;;;;;;;;;;;;;;25.02;46.53;99898.12;2317156;75;53351;-74
2023/07/02 08:17:26;;;;;;;;;;;;;;;24.99;46.35;99901.60;2317009;75;51429;-73
2023/07/02 08:20:27;;;;;;;;;;;;;;;24.98;45.75;99894.56;2295412;75;52296;-74
2023/07/02 08:23:29;;;;;;;;;;;;;;;24.77;45.50;99907.45;2340832;75;51426;-74
2023/07/02 08:26:31;;;;;;;;;;;;;;;24.71;45.73;99905.69;2340801;75;50112;-75
2023/07/02 08:29:32;;;;;;;;;;;;;;;24.67;45.46;99898.60;2336279;75;51453;-74
2023/07/02 08:32:34;;;;;;;;;;;;;;;24.66;45.27;99902.89;2325653;75;51190;-73
2023/07/02 08:35:36;;;;;;;;;;;;;;;24.62;44.23;99889.58;2322012;75;50635;-74
2023/07/02 08:38:39;;;;;;;;;;;;;;;24.57;44.46;99886.23;2365142;75;50258;-74
2023/07/02 08:41:44;;;;;;;;;;;;;;;24.59;44.96;99892.23;2335931;75;51551;-76
2023/07/02 08:44:48;;;;;;;;;;;;;;;24.58;44.72;99895.16;2335616;75;50676;-75
2023/07/02 08:47:50;;;;;;;;;;;;;;;24.44;44.60;99897.31;2364265;75;50841;-74
2023/07/02 08:50:52;;;;;;;;;;;;;;;24.52;43.34;99883.43;2357072;73;51595;-76
2023/07/02 08:53:53;;;;;;;;;;;;;;;24.48;43.65;99895.78;2372362;75;50637;-74
2023/07/02 08:56:56;;;;;;;;;;;;;;;24.51;44.06;99900.20;2297870;76;52340;-75
2023/07/02 08:59:57;;;;;;;;;;;;;;;24.22;42.97;99913.34;2263303;78;50734;-74
2023/07/02 09:02:59;;;;;;;;;;;;;;;24.26;43.79;99909.11;2265556;77;50049;-74
2023/07/02 09:06:00;;;;;;;;;;;;;;;24.36;43.93;99906.62;2244665;79;50273;-75
2023/07/02 09:09:05;;;;;;;;;;;;;;;24.40;44.31;99915.88;2239067;79;51151;-75
2023/07/02 09:12:07;;;;;;;;;;;;;;;24.47;44.31;99916.59;2210491;79;50484;-75
2023/07/02 09:15:09;;;;;;;;;;;;;;;24.50;44.10;99916.11;2244765;79;50347;-75
2023/07/02 09:18:26;;;;;;;;;;;;;;;24.52;43.93;99910.48;2209785;79;52357;-75
2023/07/02 09:21:44;;;;;;;;;;;;;;;24.51;44.02;99924.53;2193308;79;52004;-76
2023/07/02 09:24:57;;;;;;;;;;;;;;;24.53;43.92;99926.48;2298888;77;50078;-72
2023/07/02 09:27:59;;;;;;;;;;;;;;;24.55;44.14;99929.73;2301657;77;51573;-73
2023/07/02 09:31:00;;;;;;;;;;;;;;;24.55;44.35;99927.03;2298526;76;51439;-73
2023/07/02 09:34:02;;;;;;;;;;;;;;;24.60;44.23;99930.91;2323795;75;52598;-76
2023/07/02 09:37:05;;;;;;;;;;;;;;;24.60;44.38;99933.08;2365436;75;50491;-75
2023/07/02 09:40:08;;;;;;;;;;;;;;;24.62;44.35;99928.26;2293850;75;51596;-74
2023/07/02 09:43:09;;;;;;;;;;;;;;;24.63;44.31;99938.00;2291066;77;50765;-74
2023/07/02 09:46:11;;;;;;;;;;;;;;;24.64;44.39;99934.80;2262521;77;50977;-74
2023/07/02 09:49:14;;;;;;;;;;;;;;;24.65;44.46;99941.83;2293042;76;50729;-73
2023/07/02 09:52:16;;;;;;;;;;;;;;;24.65;44.52;99933.72;2257080;78;51486;-74
2023/07/02 09:55:18;;;;;;;;;;;;;;;24.67;44.51;99927.55;2270926;78;50787;-73
2023/07/02 09:58:19;;;;;;;;;;;;;;;24.66;44.26;99928.08;2282528;78;51460;-73
2023/07/02 10:01:21;;;;;;;;;;;;;;;24.66;44.05;99929.94;2258261;78;50652;-73
2023/07/02 10:04:25;;;;;;;;;;;;;;;24.64;43.78;99935.61;2286658;78;51466;-73
2023/07/02 10:07:29;;;;;;;;;;;;;;;24.62;43.39;99928.80;2286391;78;51449;-73
2023/07/02 10:10:30;;;;;;;;;;;;;;;24.61;43.27;99920.38;2257230;78;51717;-73
2023/07/02 10:13:32;;;;;;;;;;;;;;;24.59;43.09;99933.34;2258243;78;50034;-73
2023/07/02 10:16:34;;;;;;;;;;;;;;;24.57;43.22;99920.58;2286507;78;50312;-73
2023/07/02 10:19:35;;;;;;;;;;;;;;;24.55;42.96;99914.86;2283903;77;50645;-73
2023/07/02 10:22:45;;;;;;;;;;;;;;;24.56;42.88;99937.34;2246378;78;51152;-73
2023/07/02 10:25:46;;;;;;;;;;;;;;;24.55;42.80;99920.81;2286588;78;51546;-75
2023/07/02 10:28:58;;;;;;;;;;;;;;;24.52;42.71;99919.41;2286472;78;51554;-74
2023/07/02 10:32:00;;;;;;;;;;;;;;;24.53;42.85;99935.94;2286768;78;50795;-73
2023/07/02 10:35:15;;;;;;;;;;;;;;;24.51;42.85;99920.48;2224758;77;51217;-76
2023/07/02 10:38:26;;;;;;;;;;;;;;;24.53;42.81;99917.52;2249915;77;51543;-75
2023/07/02 10:41:28;;;;;;;;;;;;;;;24.52;42.87;99919.41;2354889;74;50270;-75
2023/07/02 10:44:31;;;;;;;;;;;;;;;24.52;42.76;99911.83;2309311;77;51511;-75
2023/07/02 10:47:32;;;;;;;;;;;;;;;24.50;42.60;99922.88;2242078;77;51764;-76
2023/07/02 10:50:34;;;;;;;;;;;;;;;24.49;42.73;99902.31;2306572;77;51335;-74
2023/07/02 10:53:35;;;;;;;;;;;;;;;24.48;42.84;99910.15;2316971;75;51567;-74
2023/07/02 10:56:37;;;;;;;;;;;;;;;24.48;43.11;99907.44;2286121;77;50623;-77
2023/07/02 10:59:39;;;;;;;;;;;;;;;24.47;43.35;99907.13;2246816;78;51438;-73
2023/07/02 11:02:40;;;;;;;;;;;;;;;24.47;43.43;99917.95;2286299;77;51497;-72
2023/07/02 11:05:42;;;;;;;;;;;;;;;24.46;43.97;99906.86;2287746;77;51619;-73
2023/07/02 11:08:43;;;;;;;;;;;;;;;24.42;44.20;99902.95;2291938;77;51517;-73
2023/07/02 11:11:52;;;;;;;;;;;;;;;24.42;44.59;99912.41;2305328;75;51432;-73
2023/07/02 11:14:54;;;;;;;;;;;;;;;24.44;44.93;99913.00;2272091;78;51474;-74
2023/07/02 11:17:55;;;;;;;;;;;;;;;24.46;45.02;99909.56;2272897;77;51569;-74
2023/07/02 11:20:57;;;;;;;;;;;;;;;24.49;45.16;99906.91;2302256;77;51415;-75
2023/07/02 11:24:06;;;;;;;;;;;;;;;24.48;45.70;99920.12;2280410;77;52663;-72
2023/07/02 11:27:08;;;;;;;;;;;;;;;24.50;45.78;99918.81;2280968;77;51538;-73
2023/07/02 11:30:09;;;;;;;;;;;;;;;24.55;46.02;99921.62;2314913;77;51536;-73
2023/07/02 11:33:11;;;;;;;;;;;;;;;24.53;46.20;99925.13;2314622;77;50034;-75
2023/07/02 11:36:14;;;;;;;;;;;;;;;24.49;46.25;99932.06;2310101;77;51085;-74
2023/07/02 11:39:16;;;;;;;;;;;;;;;24.47;46.37;99932.02;2305030;77;50402;-73
2023/07/02 11:42:17;;;;;;;;;;;;;;;24.46;46.53;99937.14;2309800;77;51600;-75
2023/07/02 11:45:19;;;;;;;;;;;;;;;24.48;46.91;99948.01;2281230;77;50604;-75
2023/07/02 11:48:21;;;;;;;;;;;;;;;24.51;47.04;99946.71;2259033;77;52425;-76
2023/07/02 11:51:22;;;;;;;;;;;;;;;24.54;47.04;99941.63;2277401;77;51497;-76
2023/07/02 11:54:24;;;;;;;;;;;;;;;24.54;47.10;99961.09;2306600;76;50551;-75
2023/07/02 11:57:25;;;;;;;;;;;;;;;24.53;47.26;99971.11;2304288;75;51520;-75
2023/07/02 12:00:27;;;;;;;;;;;;;;;24.51;47.27;99962.41;2243168;77;52390;-75
2023/07/02 12:03:30;;;;;;;;;;;;;;;24.53;47.26;99968.40;2249156;77;50710;-75
2023/07/02 12:06:32;;;;;;;;;;;;;;;24.51;47.28;99954.28;2253577;79;50410;-76
2023/07/02 12:09:33;;;;;;;;;;;;;;;24.52;47.31;99969.44;2262198;77;51480;-76
2023/07/02 12:12:35;;;;;;;;;;;;;;;24.53;47.41;99971.61;2228926;79;50466;-75
2023/07/02 12:15:37;;;;;;;;;;;;;;;24.55;47.50;99964.08;2230967;79;50486;-76
2023/07/02 12:18:38;;;;;;;;;;;;;;;24.57;47.87;99965.21;2236622;77;49247;-75
2023/07/02 12:21:40;;;;;;;;;;;;;;;24.55;48.13;99964.90;2249041;77;50582;-75
2023/07/02 12:24:41;;;;;;;;;;;;;;;24.58;48.22;99949.26;2230674;79;50600;-75
2023/07/02 12:27:43;;;;;;;;;;;;;;;24.60;48.35;99947.14;2230968;79;51505;-76
2023/07/02 12:30:44;;;;;;;;;;;;;;;24.57;48.27;99973.33;2231566;79;50473;-75
2023/07/02 12:33:46;;;;;;;;;;;;;;;24.53;48.25;99960.28;2262035;77;50617;-76
2023/07/02 12:36:48;;;;;;;;;;;;;;;24.52;48.24;99974.85;2291627;77;51456;-76
2023/07/02 12:39:49;;;;;;;;;;;;;;;24.55;48.21;99970.31;2267933;77;50988;-75
2023/07/02 12:42:51;;;;;;;;;;;;;;;24.55;48.26;99974.37;2267977;77;50646;-76
2023/07/02 12:45:53;;;;;;;;;;;;;;;24.57;48.21;99973.33;2268086;77;51392;-76
2023/07/02 12:48:54;;;;;;;;;;;;;;;24.55;48.30;99987.89;2291826;77;51454;-75
2023/07/02 12:51:56;;;;;;;;;;;;;;;24.55;48.44;99970.84;2256875;77;51167;-76
2023/07/02 12:54:58;;;;;;;;;;;;;;;24.56;48.43;99976.56;2266098;77;50249;-77
2023/07/02 12:57:59;;;;;;;;;;;;;;;24.55;48.59;99978.42;2289809;77;50317;-76
2023/07/02 13:01:01;;;;;;;;;;;;;;;24.55;48.67;100016.83;2289881;77;50633;-76
2023/07/02 13:04:03;;;;;;;;;;;;;;;24.57;48.64;99982.25;2265969;77;50647;-76
2023/07/02 13:07:05;;;;;;;;;;;;;;;24.57;48.71;99982.25;2289849;77;50121;-76
2023/07/02 13:10:07;;;;;;;;;;;;;;;24.55;48.82;99988.42;2290314;77;51555;-78
2023/07/02 13:13:08;;;;;;;;;;;;;;;24.53;48.90;99988.69;2266338;77;51676;-75
2023/07/02 13:16:10;;;;;;;;;;;;;;;24.53;48.99;99981.08;2241519;77;52528;-77
2023/07/02 13:19:11;;;;;;;;;;;;;;;24.54;49.08;100013.30;2264618;77;50255;-76
2023/07/02 13:22:13;;;;;;;;;;;;;;;24.58;49.19;100003.36;2284719;77;50189;-75
2023/07/02 13:25:15;;;;;;;;;;;;;;;24.59;49.25;100011.78;2289819;77;50349;-76
2023/07/02 13:28:16;;;;;;;;;;;;;;;24.57;49.37;99999.02;2240929;77;50923;-76
2023/07/02 13:31:18;;;;;;;;;;;;;;;24.59;49.33;100005.02;2265879;77;51520;-75
2023/07/02 13:34:19;;;;;;;;;;;;;;;24.57;49.35;99996.31;2265954;77;50205;-76
2023/07/02 13:37:21;;;;;;;;;;;;;;;24.58;49.28;100008.77;2265757;77;50290;-77
2023/07/02 13:40:23;;;;;;;;;;;;;;;24.55;49.53;100002.77;2241286;77;52168;-77
2023/07/02 13:43:25;;;;;;;;;;;;;;;24.58;49.46;100014.99;2266322;77;51579;-75
2023/07/02 13:46:26;;;;;;;;;;;;;;;24.59;49.49;100015.84;2265828;77;51373;-76
2023/07/02 13:49:28;;;;;;;;;;;;;;;24.59;49.60;100006.37;2263582;77;51392;-76
2023/07/02 13:52:30;;;;;;;;;;;;;;;24.56;49.21;100013.08;2231012;77;51068;-77
2023/07/02 13:55:31;;;;;;;;;;;;;;;24.54;49.11;100021.42;2230812;79;51517;-76
2023/07/02 13:58:51;;;;;;;;;;;;;;;24.53;48.89;100029.25;2253794;78;51561;-76
2023/07/02 14:01:53;;;;;;;;;;;;;;;24.52;48.50;100022.18;2253980;78;51436;-77
2023/07/02 14:04:54;;;;;;;;;;;;;;;24.51;48.54;100023.25;2230731;79;52308;-76
2023/07/02 14:07:56;;;;;;;;;;;;;;;24.57;48.63;100035.53;2253659;79;51458;-75
2023/07/02 14:10:58;;;;;;;;;;;;;;;24.58;48.39;100028.52;2230817;79;49915;-77
2023/07/02 14:13:59;;;;;;;;;;;;;;;24.57;48.37;100035.00;2230970;78;52166;-77
2023/07/02 14:17:01;;;;;;;;;;;;;;;24.54;48.49;100036.30;2206720;79;52857;-76
2023/07/02 14:20:03;;;;;;;;;;;;;;;24.53;48.46;100049.54;2259157;77;50364;-77
2023/07/02 14:23:04;;;;;;;;;;;;;;;24.50;48.53;100055.94;2278113;76;51341;-77
2023/07/02 14:26:07;;;;;;;;;;;;;;;24.50;49.40;100051.34;2266122;77;51638;-77
2023/07/02 14:29:09;;;;;;;;;;;;;;;24.52;49.07;100055.98;2265808;77;51098;-77
2023/07/02 14:32:11;;;;;;;;;;;;;;;24.52;48.22;100057.87;2289846;77;51744;-77
2023/07/02 14:35:12;;;;;;;;;;;;;;;24.54;48.02;100056.58;2289828;77;51567;-75
2023/07/02 14:38:14;;;;;;;;;;;;;;;24.56;48.07;100046.89;2289468;77;51453;-76
2023/07/02 14:41:15;;;;;;;;;;;;;;;24.59;47.93;100051.82;2265842;77;52393;-77
2023/07/02 14:44:17;;;;;;;;;;;;;;;24.59;48.13;100036.94;2266074;77;51630;-77
2023/07/02 14:47:19;;;;;;;;;;;;;;;24.56;48.44;100053.66;2289619;77;51621;-76
2023/07/02 14:50:20;;;;;;;;;;;;;;;24.51;48.38;100058.41;2282543;77;51511;-76
2023/07/02 14:53:22;;;;;;;;;;;;;;;24.51;48.38;100044.89;2229389;79;49428;-76
2023/07/02 14:56:23;;;;;;;;;;;;;;;24.55;47.94;100036.58;2230865;79;50629;-75
2023/07/02 14:59:25;;;;;;;;;;;;;;;24.59;47.97;100059.12;2261407;77;50779;-77
2023/07/02 15:02:27;;;;;;;;;;;;;;;24.58;48.01;100064.22;2268620;78;50616;-75
2023/07/02 15:05:28;;;;;;;;;;;;;;;24.58;47.87;100046.09;2247189;77;51431;-76
2023/07/02 15:08:30;;;;;;;;;;;;;;;24.60;47.82;100068.87;2261918;77;50418;-76
2023/07/02 15:11:31;;;;;;;;;;;;;;;24.58;48.23;100054.75;2273845;77;51379;-78
2023/07/02 15:14:33;;;;;;;;;;;;;;;24.53;48.37;100069.83;2304944;77;51440;-76
2023/07/02 15:17:35;;;;;;;;;;;;;;;24.53;48.22;100070.33;2248721;77;52624;-76
2023/07/02 15:20:36;;;;;;;;;;;;;;;24.51;48.14;100073.29;2273810;77;51468;-77
2023/07/02 15:23:38;;;;;;;;;;;;;;;24.48;48.10;100069.71;2304797;77;52148;-76
2023/07/02 15:26:39;;;;;;;;;;;;;;;24.48;47.78;100069.71;2273408;77;51381;-76
2023/07/02 15:29:41;;;;;;;;;;;;;;;24.51;47.78;100070.58;2273515;77;52326;-77
2023/07/02 15:32:43;;;;;;;;;;;;;;;24.52;47.80;100084.39;2304909;77;51566;-76
2023/07/02 15:35:44;;;;;;;;;;;;;;;24.51;47.96;100071.94;2294880;77;50238;-76
2023/07/02 15:38:46;;;;;;;;;;;;;;;24.54;48.46;100067.41;2261804;77;50351;-76
2023/07/02 15:41:48;;;;;;;;;;;;;;;24.58;48.12;100072.33;2249115;77;52507;-76
2023/07/02 15:44:50;;;;;;;;;;;;;;;24.58;47.50;100069.09;2304921;77;51461;-77